createdAt,value
2019-05-09T00:01:46.978Z,21.64
2019-05-09T00:04:09.895Z,21.63
2019-05-09T00:06:33.811Z,21.62
2019-05-09T00:08:54.938Z,21.62
2019-05-09T00:11:16.805Z,21.62
2019-05-09T00:13:38.878Z,21.61
2019-05-09T00:16:00.806Z,21.60
2019-05-09T00:18:23.381Z,21.60
2019-05-09T00:20:45.163Z,21.58
2019-05-09T00:23:06.830Z,21.58
2019-05-09T00:25:28.338Z,21.56
2019-05-09T00:27:50.583Z,21.55
2019-05-09T00:30:13.861Z,21.54
2019-05-09T00:32:34.380Z,21.53
2019-05-09T00:34:56.103Z,21.51
2019-05-09T00:37:18.034Z,21.50
2019-05-09T00:39:40.489Z,21.49
2019-05-09T00:42:04.419Z,21.47
2019-05-09T00:44:26.614Z,21.45
2019-05-09T00:46:47.935Z,21.44
2019-05-09T00:49:10.256Z,21.43
2019-05-09T00:51:33.683Z,21.41
2019-05-09T00:53:54.744Z,21.40
2019-05-09T00:56:16.470Z,21.39
2019-05-09T00:58:38.919Z,21.38
2019-05-09T01:01:00.944Z,21.36
2019-05-09T01:03:23.435Z,21.35
2019-05-09T01:05:47.557Z,21.34
2019-05-09T01:08:09.348Z,21.34
2019-05-09T01:10:31.413Z,21.35
2019-05-09T01:12:54.337Z,21.37
2019-05-09T01:15:15.518Z,21.41
2019-05-09T01:17:37.109Z,21.42
2019-05-09T01:19:58.700Z,21.46
2019-05-09T01:22:20.829Z,21.48
2019-05-09T01:24:44.282Z,21.49
2019-05-09T01:27:06.205Z,21.51
2019-05-09T01:29:27.890Z,21.53
2019-05-09T01:31:50.854Z,21.53
2019-05-09T01:34:13.381Z,21.52
2019-05-09T01:36:34.982Z,21.53
2019-05-09T01:38:56.573Z,21.53
2019-05-09T01:41:28.010Z,21.52
2019-05-09T01:43:41.364Z,21.53
2019-05-09T01:46:03.920Z,21.53
2019-05-09T01:48:26.317Z,21.52
2019-05-09T01:50:48.662Z,21.52
2019-05-09T01:53:10.068Z,21.51
2019-05-09T01:55:31.665Z,21.51
2019-05-09T01:57:53.852Z,21.48
2019-05-09T02:00:15.494Z,21.48
2019-05-09T02:02:37.066Z,21.48
2019-05-09T02:04:58.422Z,21.46
2019-05-09T02:07:19.962Z,21.44
2019-05-09T02:09:43.457Z,21.44
2019-05-09T02:12:05.618Z,21.43
2019-05-09T02:14:26.696Z,21.41
2019-05-09T02:16:48.474Z,21.40
2019-05-09T02:19:10.201Z,21.40
2019-05-09T02:21:34.356Z,21.39
2019-05-09T02:23:55.231Z,21.38
2019-05-09T02:26:17.078Z,21.36
2019-05-09T02:28:38.712Z,21.34
2019-05-09T02:31:00.467Z,21.34
2019-05-09T02:33:25.017Z,21.33
2019-05-09T02:35:52.887Z,21.32
2019-05-09T02:38:09.987Z,21.30
2019-05-09T02:40:31.869Z,21.28
2019-05-09T02:42:53.425Z,21.27
2019-05-09T02:45:15.362Z,21.27
2019-05-09T02:47:38.516Z,21.27
2019-05-09T02:49:59.219Z,21.28
2019-05-09T02:52:20.962Z,21.31
2019-05-09T02:54:42.895Z,21.33
2019-05-09T02:57:04.772Z,21.38
2019-05-09T02:59:29.717Z,21.41
2019-05-09T03:01:50.322Z,21.43
2019-05-09T03:04:12.215Z,21.47
2019-05-09T03:06:34.901Z,21.48
2019-05-09T03:08:59.376Z,21.50
2019-05-09T03:11:19.284Z,21.52
2019-05-09T03:13:40.730Z,21.52
2019-05-09T03:16:02.563Z,21.52
2019-05-09T03:18:23.959Z,21.53
2019-05-09T03:20:45.568Z,21.54
2019-05-09T03:23:09.150Z,21.54
2019-05-09T03:25:30.861Z,21.52
2019-05-09T03:27:52.799Z,21.52
2019-05-09T03:30:14.537Z,21.52
2019-05-09T03:32:38.707Z,21.51
2019-05-09T03:34:59.874Z,21.50
2019-05-09T03:37:21.531Z,21.50
2019-05-09T03:39:42.840Z,21.49
2019-05-09T03:42:04.809Z,21.49
2019-05-09T03:44:28.289Z,21.47
2019-05-09T03:46:50.095Z,21.46
2019-05-09T03:49:11.843Z,21.45
2019-05-09T03:51:33.679Z,21.43
2019-05-09T03:53:57.599Z,21.42
2019-05-09T03:56:19.203Z,21.42
2019-05-09T03:58:41.634Z,21.41
2019-05-09T04:01:03.263Z,21.39
2019-05-09T04:03:24.727Z,21.38
2019-05-09T04:05:56.642Z,21.37
2019-05-09T04:08:10.331Z,21.37
2019-05-09T04:10:32.430Z,21.38
2019-05-09T04:12:59.004Z,21.38
2019-05-09T04:15:19.067Z,21.39
2019-05-09T04:17:40.167Z,21.40
2019-05-09T04:20:01.903Z,21.40
2019-05-09T04:22:23.600Z,21.41
2019-05-09T04:24:47.278Z,21.42
2019-05-09T04:27:07.990Z,21.41
2019-05-09T04:29:29.138Z,21.42
2019-05-09T04:31:51.252Z,21.42
2019-05-09T04:34:12.807Z,21.42
2019-05-09T04:36:34.807Z,21.42
2019-05-09T04:38:57.773Z,21.43
2019-05-09T04:41:24.025Z,21.45
2019-05-09T04:43:42.096Z,21.49
2019-05-09T04:46:05.067Z,21.52
2019-05-09T04:48:28.168Z,21.57
2019-05-09T04:50:49.730Z,21.55
2019-05-09T04:53:11.594Z,21.52
2019-05-09T04:55:33.325Z,21.48
2019-05-09T04:57:57.234Z,21.43
2019-05-09T05:00:18.578Z,21.41
2019-05-09T05:02:40.993Z,21.41
2019-05-09T05:05:02.885Z,21.40
2019-05-09T05:07:24.873Z,21.35
2019-05-09T05:09:48.379Z,21.31
2019-05-09T05:12:09.545Z,21.26
2019-05-09T05:14:31.138Z,21.23
2019-05-09T05:16:55.294Z,21.21
2019-05-09T05:19:17.684Z,21.18
2019-05-09T05:21:39.347Z,21.15
2019-05-09T05:24:01.323Z,21.14
2019-05-09T05:26:23.355Z,21.16
2019-05-09T05:28:47.476Z,21.17
2019-05-09T05:31:08.610Z,21.20
2019-05-09T05:33:30.981Z,21.23
2019-05-09T05:35:52.481Z,21.26
2019-05-09T05:38:13.575Z,21.17
2019-05-09T05:40:43.573Z,21.18
2019-05-09T05:42:58.682Z,21.20
2019-05-09T05:45:19.918Z,21.23
2019-05-09T05:47:42.355Z,21.27
2019-05-09T05:50:04.612Z,21.30
2019-05-09T05:52:27.752Z,21.33
2019-05-09T05:54:48.942Z,21.36
2019-05-09T05:57:10.576Z,21.38
2019-05-09T05:59:32.485Z,21.40
2019-05-09T06:01:54.523Z,21.41
2019-05-09T06:04:18.649Z,21.43
2019-05-09T06:06:39.834Z,21.45
2019-05-09T06:09:01.347Z,21.46
2019-05-09T06:11:22.737Z,21.48
2019-05-09T06:13:54.431Z,21.49
2019-05-09T06:16:08.589Z,21.50
2019-05-09T06:18:30.693Z,21.43
2019-05-09T06:20:52.061Z,21.42
2019-05-09T06:23:14.110Z,21.42
2019-05-09T06:25:38.728Z,21.43
2019-05-09T06:27:59.336Z,21.42
2019-05-09T06:30:21.314Z,21.43
2019-05-09T06:32:42.801Z,21.43
2019-05-09T06:35:04.943Z,21.43
2019-05-09T06:37:27.673Z,21.45
2019-05-09T06:39:49.176Z,21.44
2019-05-09T06:42:10.852Z,21.45
2019-05-09T06:44:32.814Z,21.44
2019-05-09T06:46:54.700Z,21.44
2019-05-09T06:49:27.575Z,21.46
2019-05-09T06:51:40.543Z,21.47
2019-05-09T06:54:02.410Z,21.47
2019-05-09T06:56:23.898Z,21.48
2019-05-09T06:58:47.962Z,21.49
2019-05-09T07:01:09.459Z,21.49
2019-05-09T07:03:31.516Z,21.48
2019-05-09T07:05:52.784Z,21.47
2019-05-09T07:08:14.682Z,21.47
2019-05-09T07:10:37.749Z,21.46
2019-05-09T07:12:59.285Z,21.47
2019-05-09T07:15:21.416Z,21.49
2019-05-09T07:17:43.119Z,21.51
2019-05-09T07:20:04.787Z,21.55
2019-05-09T07:22:28.045Z,21.58
2019-05-09T07:24:50.411Z,21.62
2019-05-09T07:27:12.098Z,21.65
2019-05-09T07:29:33.876Z,21.68
2019-05-09T07:31:57.307Z,21.69
2019-05-09T07:34:19.264Z,21.72
2019-05-09T07:36:40.943Z,21.73
2019-05-09T07:39:02.655Z,21.74
2019-05-09T07:41:24.696Z,21.74
2019-05-09T07:43:47.806Z,21.75
2019-05-09T07:46:09.986Z,21.76
2019-05-09T07:48:31.976Z,21.76
2019-05-09T07:50:54.222Z,21.77
2019-05-09T07:53:17.587Z,21.76
2019-05-09T07:55:38.110Z,21.76
2019-05-09T07:57:59.948Z,21.75
2019-05-09T08:00:21.497Z,21.74
2019-05-09T08:02:43.283Z,21.74
2019-05-09T08:05:05.084Z,21.73
2019-05-09T08:07:29.101Z,21.72
2019-05-09T08:09:51.130Z,21.71
2019-05-09T08:12:12.934Z,21.70
2019-05-09T08:14:34.739Z,21.69
2019-05-09T08:16:58.104Z,21.68
2019-05-09T08:19:19.142Z,21.67
2019-05-09T08:21:40.682Z,21.66
2019-05-09T08:24:02.391Z,21.66
2019-05-09T08:26:24.078Z,21.66
2019-05-09T08:28:47.977Z,21.66
2019-05-09T08:31:09.644Z,21.64
2019-05-09T08:33:31.381Z,21.64
2019-05-09T08:35:52.854Z,21.63
2019-05-09T08:38:14.743Z,21.63
2019-05-09T08:40:38.208Z,21.62
2019-05-09T08:42:59.241Z,21.61
2019-05-09T08:45:27.548Z,21.60
2019-05-09T08:47:43.572Z,21.60
2019-05-09T08:50:07.842Z,21.59
2019-05-09T08:52:28.816Z,21.59
2019-05-09T08:54:51.303Z,21.60
2019-05-09T08:57:13.024Z,21.60
2019-05-09T08:59:35.066Z,21.60
2019-05-09T09:02:12.188Z,21.60
2019-05-09T09:04:20.663Z,21.59
2019-05-09T09:06:42.579Z,21.59
2019-05-09T09:09:04.220Z,21.60
2019-05-09T09:11:27.881Z,21.62
2019-05-09T09:13:48.892Z,21.66
2019-05-09T09:16:18.521Z,21.70
2019-05-09T09:18:33.909Z,21.74
2019-05-09T09:20:55.414Z,21.79
2019-05-09T09:23:18.151Z,21.83
2019-05-09T09:25:39.586Z,21.85
2019-05-09T09:28:01.379Z,21.88
2019-05-09T09:30:25.115Z,21.90
2019-05-09T09:32:47.898Z,21.91
2019-05-09T09:35:09.362Z,21.91
2019-05-09T09:37:45.059Z,21.93
2019-05-09T09:39:54.425Z,21.92
2019-05-09T09:42:19.742Z,21.94
2019-05-09T09:44:39.861Z,21.93
2019-05-09T09:47:01.571Z,21.93
2019-05-09T09:49:23.499Z,21.94
2019-05-09T09:51:45.775Z,21.92
2019-05-09T09:54:08.816Z,21.93
2019-05-09T09:56:30.999Z,21.93
2019-05-09T09:58:52.778Z,21.92
2019-05-09T10:01:14.340Z,21.92
2019-05-09T10:03:35.751Z,21.92
2019-05-09T10:05:57.851Z,21.90
2019-05-09T10:08:18.952Z,21.88
2019-05-09T10:10:41.256Z,21.86
2019-05-09T10:13:04.323Z,21.85
2019-05-09T10:15:28.102Z,21.84
2019-05-09T10:17:49.204Z,21.83
2019-05-09T10:20:10.867Z,21.82
2019-05-09T10:22:32.460Z,21.82
2019-05-09T10:24:54.505Z,21.80
2019-05-09T10:27:18.303Z,21.80
2019-05-09T10:29:39.218Z,21.79
2019-05-09T10:32:00.410Z,21.76
2019-05-09T10:34:22.052Z,21.75
2019-05-09T10:36:43.934Z,21.74
2019-05-09T10:39:08.316Z,21.73
2019-05-09T10:41:29.642Z,21.72
2019-05-09T10:43:51.172Z,21.70
2019-05-09T10:46:15.481Z,21.69
2019-05-09T10:48:38.502Z,21.67
2019-05-09T10:51:03.873Z,21.67
2019-05-09T10:53:22.463Z,21.65
2019-05-09T10:55:44.503Z,21.66
2019-05-09T10:58:08.125Z,21.65
2019-05-09T11:00:29.042Z,21.64
2019-05-09T11:02:50.841Z,21.63
2019-05-09T11:05:12.545Z,21.64
2019-05-09T11:07:34.798Z,21.65
2019-05-09T11:09:58.808Z,21.68
2019-05-09T11:12:19.699Z,21.73
2019-05-09T11:14:41.051Z,21.77
2019-05-09T11:17:10.945Z,21.81
2019-05-09T11:19:28.642Z,21.85
2019-05-09T11:21:49.565Z,21.88
2019-05-09T11:24:10.919Z,21.90
2019-05-09T11:26:33.019Z,21.91
2019-05-09T11:28:54.212Z,21.90
2019-05-09T11:31:18.336Z,21.90
2019-05-09T11:33:38.720Z,21.91
2019-05-09T11:36:00.326Z,21.91
2019-05-09T11:38:32.488Z,21.91
2019-05-09T11:40:44.996Z,21.90
2019-05-09T11:43:06.109Z,21.88
2019-05-09T11:45:28.637Z,21.87
2019-05-09T11:47:50.290Z,21.86
2019-05-09T11:50:11.509Z,21.85
2019-05-09T11:52:33.168Z,21.84
2019-05-09T11:54:54.534Z,21.83
2019-05-09T11:57:18.928Z,21.81
2019-05-09T11:59:39.374Z,21.81
2019-05-09T12:02:01.179Z,21.80
2019-05-09T12:04:23.498Z,21.79
2019-05-09T12:06:44.953Z,21.80
2019-05-09T12:09:08.649Z,21.80
2019-05-09T12:11:28.895Z,21.80
2019-05-09T12:13:51.185Z,21.81
2019-05-09T12:16:12.596Z,21.82
2019-05-09T12:18:37.671Z,21.82
2019-05-09T12:20:58.340Z,21.81
2019-05-09T12:23:20.118Z,21.81
2019-05-09T12:25:41.619Z,21.80
2019-05-09T12:28:03.595Z,21.80
2019-05-09T12:30:25.343Z,21.79
2019-05-09T12:32:47.373Z,21.78
2019-05-09T12:35:09.194Z,21.78
2019-05-09T12:37:30.771Z,21.80
2019-05-09T12:39:52.797Z,21.80
2019-05-09T12:42:14.604Z,21.81
2019-05-09T12:44:36.419Z,21.81
2019-05-09T12:46:58.682Z,21.81
2019-05-09T12:49:20.329Z,21.82
2019-05-09T12:51:42.150Z,21.82
2019-05-09T12:54:03.869Z,21.85
2019-05-09T12:56:28.187Z,21.84
2019-05-09T12:58:48.617Z,21.84
2019-05-09T13:01:10.489Z,21.82
2019-05-09T13:03:32.040Z,21.82
2019-05-09T13:05:53.996Z,21.80
2019-05-09T13:08:15.089Z,21.78
2019-05-09T13:10:37.882Z,21.78
2019-05-09T13:12:59.999Z,21.74
2019-05-09T13:15:22.187Z,21.75
2019-05-09T13:17:43.741Z,21.75
2019-05-09T13:20:07.807Z,21.75
2019-05-09T13:22:28.510Z,21.75
2019-05-09T13:24:50.155Z,21.79
2019-05-09T13:27:11.705Z,21.80
2019-05-09T13:29:34.055Z,21.84
2019-05-09T13:31:57.717Z,21.90
2019-05-09T13:34:19.203Z,21.95
2019-05-09T13:36:40.711Z,22.02
2019-05-09T13:39:05.006Z,22.08
2019-05-09T13:41:26.772Z,22.13
2019-05-09T13:43:57.597Z,22.14
2019-05-09T13:46:10.718Z,22.13
2019-05-09T13:48:57.169Z,22.13
2019-05-09T13:50:57.695Z,22.13
2019-05-09T13:53:19.241Z,22.12
2019-05-09T13:55:41.409Z,22.12
2019-05-09T13:58:03.276Z,22.11
2019-05-09T14:00:24.547Z,22.11
2019-05-09T14:02:48.958Z,22.07
2019-05-09T14:05:09.544Z,22.07
2019-05-09T14:07:30.914Z,22.07
2019-05-09T14:09:52.865Z,22.06
2019-05-09T14:12:14.697Z,22.05
2019-05-09T14:14:37.968Z,22.02
2019-05-09T14:16:59.494Z,22.01
2019-05-09T14:19:39.901Z,22.00
2019-05-09T14:21:44.822Z,22.00
2019-05-09T14:24:14.993Z,21.98
2019-05-09T14:26:29.509Z,21.97
2019-05-09T14:28:51.340Z,21.95
2019-05-09T14:31:12.987Z,21.94
2019-05-09T14:33:34.971Z,21.92
2019-05-09T14:35:56.590Z,21.92
2019-05-09T14:38:18.611Z,21.91
2019-05-09T14:40:40.425Z,21.90
2019-05-09T14:43:02.313Z,21.90
2019-05-09T14:45:23.922Z,21.89
2019-05-09T14:47:45.761Z,21.87
2019-05-09T14:50:09.948Z,21.86
2019-05-09T14:52:32.282Z,21.86
2019-05-09T14:54:54.494Z,21.85
2019-05-09T14:57:17.517Z,21.84
2019-05-09T14:59:40.009Z,21.83
2019-05-09T15:02:01.066Z,21.83
2019-05-09T15:04:22.867Z,21.82
2019-05-09T15:06:44.780Z,21.81
2019-05-09T15:09:08.282Z,21.82
2019-05-09T15:11:30.588Z,21.81
2019-05-09T15:13:52.330Z,21.81
2019-05-09T15:16:14.325Z,21.83
2019-05-09T15:18:35.544Z,21.83
2019-05-09T15:20:58.141Z,21.87
2019-05-09T15:23:19.870Z,21.89
2019-05-09T15:25:41.505Z,21.92
2019-05-09T15:28:03.128Z,21.95
2019-05-09T15:30:24.342Z,21.96
2019-05-09T15:32:47.443Z,21.96
2019-05-09T15:35:09.858Z,21.94
2019-05-09T15:37:31.514Z,21.95
2019-05-09T15:39:53.559Z,21.96
2019-05-09T15:42:14.840Z,21.98
2019-05-09T15:44:36.558Z,22.01
2019-05-09T15:46:58.628Z,22.07
2019-05-09T15:49:19.838Z,22.12
2019-05-09T15:51:41.675Z,22.14
2019-05-09T15:54:05.150Z,22.17
2019-05-09T15:56:28.801Z,22.18
2019-05-09T15:58:50.083Z,22.21
2019-05-09T16:01:11.926Z,22.22
2019-05-09T16:03:33.588Z,22.23
2019-05-09T16:05:55.463Z,22.24
2019-05-09T16:08:18.703Z,22.23
2019-05-09T16:10:40.967Z,22.25
2019-05-09T16:13:03.555Z,22.23
2019-05-09T16:15:24.891Z,22.23
2019-05-09T16:17:48.501Z,22.22
2019-05-09T16:20:10.533Z,22.15
2019-05-09T16:22:32.185Z,22.06
2019-05-09T16:24:54.224Z,22.01
2019-05-09T16:27:16.408Z,21.93
2019-05-09T16:29:38.255Z,21.88
2019-05-09T16:32:00.338Z,21.83
2019-05-09T16:34:22.083Z,21.75
2019-05-09T16:36:43.648Z,21.73
2019-05-09T16:39:06.899Z,21.68
2019-05-09T16:41:28.254Z,21.66
2019-05-09T16:43:49.713Z,21.62
2019-05-09T16:46:11.716Z,21.59
2019-05-09T16:48:32.902Z,21.62
2019-05-09T16:51:04.383Z,21.70
2019-05-09T16:53:18.566Z,21.75
2019-05-09T16:55:39.897Z,21.76
2019-05-09T16:58:01.390Z,21.76
2019-05-09T17:00:22.736Z,21.77
2019-05-09T17:02:44.209Z,21.77
2019-05-09T17:05:08.343Z,21.76
2019-05-09T17:07:29.423Z,21.75
2019-05-09T17:09:51.086Z,21.74
2019-05-09T17:12:13.176Z,21.75
2019-05-09T17:14:35.201Z,21.76
2019-05-09T17:16:59.621Z,21.76
2019-05-09T17:19:19.693Z,21.76
2019-05-09T17:21:41.365Z,21.75
2019-05-09T17:24:03.227Z,21.74
2019-05-09T17:26:24.966Z,21.74
2019-05-09T17:28:48.486Z,21.74
2019-05-09T17:31:09.306Z,21.78
2019-05-09T17:33:30.711Z,21.81
2019-05-09T17:35:52.937Z,21.86
2019-05-09T17:38:14.058Z,21.88
2019-05-09T17:40:38.311Z,21.88
2019-05-09T17:42:59.223Z,21.90
2019-05-09T17:45:20.370Z,21.90
2019-05-09T17:47:41.623Z,21.89
2019-05-09T17:50:03.094Z,21.89
2019-05-09T17:52:24.900Z,21.90
2019-05-09T17:54:48.586Z,21.89
2019-05-09T17:57:10.745Z,21.88
2019-05-09T17:59:32.643Z,21.88
2019-05-09T18:01:54.236Z,21.89
2019-05-09T18:04:17.873Z,21.88
2019-05-09T18:06:38.486Z,21.88
2019-05-09T18:08:59.801Z,21.87
2019-05-09T18:11:21.494Z,21.88
2019-05-09T18:13:42.460Z,21.87
2019-05-09T18:16:03.890Z,21.87
2019-05-09T18:18:28.174Z,21.86
2019-05-09T18:20:48.051Z,21.85
2019-05-09T18:23:09.691Z,21.85
2019-05-09T18:25:31.668Z,21.80
2019-05-09T18:27:52.853Z,21.79
2019-05-09T18:30:14.802Z,21.80
2019-05-09T18:32:38.333Z,21.80
2019-05-09T18:35:00.409Z,21.81
2019-05-09T18:37:21.684Z,21.81
2019-05-09T18:39:43.888Z,21.81
2019-05-09T18:42:08.492Z,21.80
2019-05-09T18:44:29.015Z,21.80
2019-05-09T18:46:50.957Z,21.81
2019-05-09T18:49:12.640Z,21.81
2019-05-09T18:51:34.628Z,21.80
2019-05-09T18:53:56.119Z,21.82
2019-05-09T18:56:18.268Z,21.82
2019-05-09T18:58:40.101Z,21.82
2019-05-09T19:01:01.706Z,21.81
2019-05-09T19:03:23.305Z,21.82
2019-05-09T19:05:44.933Z,21.80
2019-05-09T19:08:06.352Z,21.79
2019-05-09T19:10:27.699Z,21.79
2019-05-09T19:12:49.250Z,21.79
2019-05-09T19:15:10.879Z,21.76
2019-05-09T19:17:33.265Z,21.78
2019-05-09T19:19:55.117Z,21.75
2019-05-09T19:22:22.453Z,21.74
2019-05-09T19:24:40.267Z,21.73
2019-05-09T19:27:02.047Z,21.74
2019-05-09T19:29:24.354Z,21.74
2019-05-09T19:31:46.412Z,21.76
2019-05-09T19:34:07.798Z,21.75
2019-05-09T19:36:29.805Z,21.76
2019-05-09T19:38:51.375Z,21.76
2019-05-09T19:41:12.818Z,21.79
2019-05-09T19:43:34.993Z,21.83
2019-05-09T19:45:57.053Z,21.86
2019-05-09T19:48:18.955Z,21.87
2019-05-09T19:50:40.184Z,21.90
2019-05-09T19:53:02.172Z,21.92
2019-05-09T19:55:24.086Z,21.93
2019-05-09T19:57:46.056Z,21.94
2019-05-09T20:00:07.824Z,21.92
2019-05-09T20:02:29.445Z,21.91
2019-05-09T20:04:54.129Z,21.92
2019-05-09T20:07:16.445Z,21.92
2019-05-09T20:09:38.235Z,21.94
2019-05-09T20:12:00.439Z,21.93
2019-05-09T20:14:22.847Z,21.95
2019-05-09T20:16:44.052Z,21.97
2019-05-09T20:19:06.238Z,21.97
2019-05-09T20:21:27.485Z,21.98
2019-05-09T20:23:49.622Z,22.05
2019-05-09T20:26:13.782Z,22.05
2019-05-09T20:28:36.033Z,22.06
2019-05-09T20:30:57.971Z,22.06
2019-05-09T20:33:19.576Z,22.05
2019-05-09T20:35:41.113Z,22.06
2019-05-09T20:38:03.875Z,22.06
2019-05-09T20:40:25.349Z,22.07
2019-05-09T20:42:46.883Z,22.07
2019-05-09T20:45:08.534Z,22.07
2019-05-09T20:47:30.419Z,22.07
2019-05-09T20:49:52.349Z,22.08
2019-05-09T20:52:15.957Z,22.08
2019-05-09T20:54:37.768Z,22.06
2019-05-09T20:56:59.824Z,22.05
2019-05-09T20:59:21.260Z,22.04
2019-05-09T21:01:42.759Z,22.02
2019-05-09T21:04:05.095Z,22.01
2019-05-09T21:06:26.113Z,21.99
2019-05-09T21:08:47.870Z,21.99
2019-05-09T21:11:08.975Z,21.97
2019-05-09T21:13:30.580Z,21.96
2019-05-09T21:15:52.451Z,21.95
2019-05-09T21:18:14.332Z,21.93
2019-05-09T21:20:35.830Z,21.91
2019-05-09T21:22:57.954Z,21.90
2019-05-09T21:25:19.414Z,21.89
2019-05-09T21:27:40.816Z,21.88
2019-05-09T21:30:02.272Z,21.87
2019-05-09T21:32:24.224Z,21.85
2019-05-09T21:34:46.706Z,21.84
2019-05-09T21:37:08.271Z,21.83
2019-05-09T21:39:30.352Z,21.82
2019-05-09T21:41:52.701Z,21.82
2019-05-09T21:44:13.962Z,21.82
2019-05-09T21:46:35.376Z,21.83
2019-05-09T21:48:57.269Z,21.83
2019-05-09T21:51:18.875Z,21.84
2019-05-09T21:53:41.442Z,21.86
2019-05-09T21:56:03.321Z,21.90
2019-05-09T21:58:25.476Z,21.92
2019-05-09T22:00:49.828Z,21.95
2019-05-09T22:03:11.155Z,21.96
2019-05-09T22:05:32.939Z,21.97
2019-05-09T22:07:54.500Z,21.97
2019-05-09T22:10:16.055Z,21.97
2019-05-09T22:12:37.831Z,21.99
2019-05-09T22:14:59.375Z,21.99
2019-05-09T22:17:21.100Z,21.99
2019-05-09T22:19:43.061Z,22.00
2019-05-09T22:22:04.974Z,22.00
2019-05-09T22:24:27.082Z,21.99
2019-05-09T22:26:48.207Z,21.98
2019-05-09T22:29:10.122Z,21.97
2019-05-09T22:31:31.765Z,21.98
2019-05-09T22:33:53.814Z,21.97
2019-05-09T22:36:15.497Z,21.98
2019-05-09T22:38:37.022Z,21.97
2019-05-09T22:40:58.441Z,21.98
2019-05-09T22:43:20.304Z,21.97
2019-05-09T22:45:41.509Z,21.95
2019-05-09T22:48:03.349Z,21.96
2019-05-09T22:50:24.817Z,21.95
2019-05-09T22:52:46.963Z,21.93
2019-05-09T22:55:08.823Z,21.92
2019-05-09T22:57:30.817Z,21.92
2019-05-09T22:59:52.181Z,21.91
2019-05-09T23:02:13.577Z,21.90
2019-05-09T23:04:34.879Z,21.89
2019-05-09T23:06:56.230Z,21.88
2019-05-09T23:09:18.208Z,21.87
2019-05-09T23:11:39.575Z,21.85
2019-05-09T23:14:01.354Z,21.84
2019-05-09T23:16:23.078Z,21.83
2019-05-09T23:18:45.012Z,21.82
2019-05-09T23:21:06.811Z,21.81
2019-05-09T23:23:28.761Z,21.80
2019-05-09T23:25:50.762Z,21.79
2019-05-09T23:28:12.408Z,21.77
2019-05-09T23:30:34.106Z,21.76
2019-05-09T23:32:55.883Z,21.75
2019-05-09T23:35:17.172Z,21.74
2019-05-09T23:37:39.074Z,21.74
2019-05-09T23:40:00.505Z,21.71
2019-05-09T23:42:22.399Z,21.70
2019-05-09T23:44:44.369Z,21.69
2019-05-09T23:47:05.694Z,21.68
2019-05-09T23:49:27.698Z,21.67
2019-05-09T23:51:49.859Z,21.66
2019-05-09T23:54:11.585Z,21.65
2019-05-09T23:56:34.101Z,21.65
2019-05-09T23:58:55.810Z,21.66
